London Airport
CYXU : now visible

Airfield :











YOU CAN JOIN US ON...

 
LOGIN :

Register | Disclaimer

   EN    FR    IT 

 









Legend :    VFR   Marginal VFR   IFR   Intensive IFR   Very Intensive IFR
Visi :
Ceiling :
>= 8 km
>= 3000ft
5 to 8 km
1000 to 3000 ft
1500m to 5 km
500 to 1000 ft
800 to 1500m
200 to 500 ft
< 800m
< 200 ft
Symbols :   Thunderstorms  Fog  Heavy snow  Heavy precipitations  Wind > 20 kt






- Airport Elevation : 912 ft
- IATA code : YXU


CYXU - London

CURRENT METAR :
  • 141700Z 23009KT 6SM -SN SCT012 OVC050 M02/M05 A3014 RMK SF4SC4 SLP219

EXPIRED METARs :
  • 141632Z 26007KT 5SM -SN BKN012 OVC030 M02/M05 A3015 RMK SF6SC2 CIG RAG SLP224
  • 141543Z 25009KT 2 1/2SM -SN BKN012 OVC030 M03/M05 A3014 RMK SN1SF5SC2 CIG RAG SLP222

TAF TAF CYXU
Valid from the 14 at 12:00 until the 15 at 12:00 UTC


141138Z 1412/1512 24010G20KT P6SM SCT030 OVC050
TEMPO 1412/1417 2SM -SN BKN015 OVC040
FM141700 24010G20KT P6SM FEW020 OVC050
TEMPO 1417/1502 BKN015 OVC040
FM150200 24010KT P6SM OVC012 RMK NXT FCST BY 141800Z



MET'MAP, your aeronautical weather chart ! - Copyright ORBIFLY December 2007 - Disclaimer

ORBIFLY MET'MAP TEAM :

Programming & Development : Alexandra Zaïnal
Concept & Development : Baudouin d'Aumeries
Co-Development & Prog : Marc-Olivier Méhu
Technical & hardware support : Manuel Goepfert

Contact : metmap@orbifly.com




SOURCES & CREDITS :

   NOAA       Earth
Advisory